Time;durP1;ratioP1;P1;durP2;ratioP2;P2;SDS_P1;SDS_P2;PMS_P1;PMS_P2;Temp;Humidity;BMP_temperature;BMP_pressure;BME280_temperature;BME280_humidity;BME280_pressure;Samples;Min_cycle;Max_cycle;Signal;HPM_P1;HPM_P2
2022/08/21 00:01:24;;;;;;;6.47;5.87;;;18.40;99.90;;;;;;5074431;28;20463;-53
2022/08/21 00:03:51;;;;;;;6.50;6.00;;;18.40;99.90;;;;;;5071551;28;20621;-54
2022/08/21 00:06:18;;;;;;;6.30;5.80;;;18.50;99.90;;;;;;5074025;28;20513;-52
2022/08/21 00:08:45;;;;;;;6.77;5.87;;;18.50;99.90;;;;;;5072253;28;20480;-52
2022/08/21 00:11:15;;;;;;;6.73;6.13;;;18.40;99.90;;;;;;5078580;28;20478;-52
2022/08/21 00:13:42;;;;;;;6.23;5.60;;;18.40;99.90;;;;;;5078119;28;20513;-52
2022/08/21 00:16:09;;;;;;;5.80;5.40;;;18.40;99.90;;;;;;5072886;28;20461;-52
2022/08/21 00:18:35;;;;;;;5.93;5.40;;;18.40;99.90;;;;;;5077954;28;20484;-54
2022/08/21 00:21:02;;;;;;;7.23;6.53;;;18.40;99.90;;;;;;5072246;28;20492;-52
2022/08/21 00:23:29;;;;;;;6.20;5.77;;;18.40;99.90;;;;;;5077111;28;20864;-53
2022/08/21 00:25:55;;;;;;;7.37;6.60;;;18.40;99.90;;;;;;5073887;28;20550;-51
2022/08/21 00:28:23;;;;;;;5.50;5.17;;;18.40;99.90;;;;;;5082031;28;20522;-52
2022/08/21 00:30:50;;;;;;;6.20;5.80;;;18.40;99.90;;;;;;5076129;28;20538;-52
2022/08/21 00:33:17;;;;;;;6.80;6.20;;;18.40;99.90;;;;;;5076951;28;20543;-52
2022/08/21 00:35:44;;;;;;;13.17;5.93;;;18.40;99.90;;;;;;5071283;28;20532;-52
2022/08/21 00:38:11;;;;;;;6.77;6.27;;;18.40;99.90;;;;;;5077743;28;20577;-52
2022/08/21 00:40:41;;;;;;;5.87;5.47;;;18.40;99.90;;;;;;5081962;28;20457;-52
2022/08/21 00:43:11;;;;;;;6.77;6.10;;;18.40;99.90;;;;;;5072085;28;20970;-53
2022/08/21 00:45:40;;;;;;;7.33;6.77;;;18.30;99.90;;;;;;5078214;28;20883;-52
2022/08/21 00:48:07;;;;;;;7.60;6.13;;;18.30;99.90;;;;;;5081502;28;20530;-52
2022/08/21 00:50:38;;;;;;;7.03;6.07;;;18.30;99.90;;;;;;5070977;28;20509;-51
2022/08/21 00:53:07;;;;;;;10.60;6.83;;;18.30;99.90;;;;;;5075317;28;20542;-52
2022/08/21 00:55:35;;;;;;;7.53;6.57;;;18.30;99.90;;;;;;5070425;28;20517;-51
2022/08/21 00:58:03;;;;;;;11.60;6.13;;;18.20;99.90;;;;;;5076912;28;20484;-51
2022/08/21 01:00:33;;;;;;;6.93;6.33;;;18.20;99.90;;;;;;5068198;28;20464;-51
2022/08/21 01:03:06;;;;;;;9.00;7.13;;;18.20;99.90;;;;;;5072114;28;20469;-52
2022/08/21 01:05:33;;;;;;;6.70;6.07;;;18.10;99.90;;;;;;5059146;28;20547;-52
2022/08/21 01:08:00;;;;;;;11.07;6.13;;;18.10;99.90;;;;;;5076990;28;20542;-51
2022/08/21 01:10:27;;;;;;;7.73;6.20;;;18.10;99.90;;;;;;5070403;28;20493;-53
2022/08/21 01:12:56;;;;;;;11.00;5.73;;;18.10;99.90;;;;;;5065921;28;20518;-52
2022/08/21 01:15:25;;;;;;;6.23;5.67;;;18.10;99.90;;;;;;5073873;28;21104;-52
2022/08/21 01:17:52;;;;;;;5.87;5.40;;;18.00;99.90;;;;;;5072962;28;20526;-52
2022/08/21 01:20:20;;;;;;;6.20;5.60;;;18.00;99.90;;;;;;5068295;28;20452;-52
2022/08/21 01:22:48;;;;;;;6.17;5.67;;;18.00;99.90;;;;;;5074058;28;20487;-52
2022/08/21 01:25:16;;;;;;;7.90;6.20;;;18.00;99.90;;;;;;5061029;28;20883;-52
2022/08/21 01:27:43;;;;;;;8.80;5.03;;;17.90;99.90;;;;;;5078231;28;20535;-52
2022/08/21 01:30:14;;;;;;;6.40;5.77;;;17.90;99.90;;;;;;5071128;28;20557;-52
2022/08/21 01:32:41;;;;;;;8.83;5.60;;;17.90;99.90;;;;;;5067420;28;20502;-52
2022/08/21 01:35:09;;;;;;;7.73;4.73;;;17.80;99.90;;;;;;5079579;28;20861;-52
2022/08/21 01:37:36;;;;;;;5.00;4.60;;;17.80;99.90;;;;;;5072486;28;20469;-52
2022/08/21 01:40:06;;;;;;;5.90;4.50;;;17.80;99.90;;;;;;5070640;28;20457;-52
2022/08/21 01:42:33;;;;;;;7.27;4.53;;;17.70;99.90;;;;;;5069768;28;20460;-52
2022/08/21 01:44:59;;;;;;;7.63;4.10;;;17.60;99.90;;;;;;5070830;28;20465;-52
2022/08/21 01:47:26;;;;;;;5.17;3.97;;;17.60;99.90;;;;;;5071473;28;20457;-53
2022/08/21 01:49:53;;;;;;;5.67;4.43;;;17.60;99.90;;;;;;5067000;28;20476;-52
2022/08/21 01:52:20;;;;;;;5.87;4.07;;;17.60;99.90;;;;;;5077700;28;20441;-52
2022/08/21 01:54:47;;;;;;;4.43;3.80;;;17.50;99.90;;;;;;5070889;28;20468;-52
2022/08/21 01:57:15;;;;;;;4.30;3.80;;;17.50;99.90;;;;;;5082736;28;20464;-52
2022/08/21 01:59:42;;;;;;;4.00;3.70;;;17.40;99.90;;;;;;5075018;28;20469;-52
2022/08/21 02:02:09;;;;;;;6.37;3.83;;;17.50;99.90;;;;;;5069802;28;20456;-52
2022/08/21 02:04:35;;;;;;;13.63;4.33;;;17.40;99.90;;;;;;5092659;28;20437;-52
2022/08/21 02:07:02;;;;;;;3.73;3.40;;;17.40;99.90;;;;;;5080035;28;20491;-52
2022/08/21 02:09:29;;;;;;;9.03;4.17;;;17.40;99.90;;;;;;5072902;28;20518;-52
2022/08/21 02:11:56;;;;;;;4.63;4.20;;;17.30;99.90;;;;;;5075267;28;20492;-52
2022/08/21 02:14:24;;;;;;;7.60;3.87;;;17.30;99.90;;;;;;5072311;28;20950;-52
2022/08/21 02:16:50;;;;;;;3.60;3.30;;;17.20;99.90;;;;;;5071348;28;20878;-52
2022/08/21 02:19:17;;;;;;;6.27;4.40;;;17.20;99.90;;;;;;5068486;28;21064;-53
2022/08/21 02:21:44;;;;;;;4.20;3.80;;;17.10;99.90;;;;;;5072379;28;20532;-52
2022/08/21 02:24:12;;;;;;;5.97;4.03;;;17.10;99.90;;;;;;5077372;28;21012;-52
2022/08/21 02:26:39;;;;;;;3.80;3.50;;;17.10;99.90;;;;;;5071588;28;20490;-52
2022/08/21 02:29:06;;;;;;;4.30;3.90;;;17.10;99.90;;;;;;5072339;28;21047;-53
2022/08/21 02:31:34;;;;;;;4.30;3.53;;;17.10;99.90;;;;;;5075004;28;20498;-51
2022/08/21 02:34:01;;;;;;;6.13;3.87;;;17.10;99.90;;;;;;5070991;28;20529;-52
2022/08/21 02:36:28;;;;;;;3.77;3.53;;;17.10;99.90;;;;;;5073389;28;20507;-52
2022/08/21 02:38:55;;;;;;;8.83;4.03;;;17.10;99.90;;;;;;5069542;28;20511;-52
2022/08/21 02:41:22;;;;;;;9.17;3.73;;;17.00;99.90;;;;;;5072538;28;20886;-52
2022/08/21 02:43:49;;;;;;;4.83;3.93;;;16.90;99.90;;;;;;5073492;28;20494;-53
2022/08/21 02:46:19;;;;;;;5.53;3.90;;;16.90;99.90;;;;;;5071848;28;20461;-52
2022/08/21 02:48:47;;;;;;;5.60;3.77;;;16.90;99.90;;;;;;5075976;28;20557;-52
2022/08/21 02:51:17;;;;;;;7.10;3.47;;;16.90;99.90;;;;;;5076035;28;20491;-52
2022/08/21 02:53:44;;;;;;;4.33;3.93;;;16.90;99.90;;;;;;5063129;28;20461;-52
2022/08/21 02:56:13;;;;;;;4.13;3.70;;;16.80;99.90;;;;;;5069327;28;20461;-52
2022/08/21 02:58:43;;;;;;;3.80;3.50;;;16.80;99.90;;;;;;5064009;28;20484;-51
2022/08/21 03:01:10;;;;;;;4.57;3.53;;;16.70;99.90;;;;;;5066911;28;20514;-52
2022/08/21 03:03:38;;;;;;;4.47;3.67;;;16.80;99.90;;;;;;5076474;28;21843;-52
2022/08/21 03:06:07;;;;;;;4.60;4.30;;;16.70;99.90;;;;;;5085638;28;20440;-53
2022/08/21 03:08:34;;;;;;;8.37;5.27;;;16.70;99.90;;;;;;5060304;28;20492;-52
2022/08/21 03:11:01;;;;;;;3.90;3.60;;;16.70;99.90;;;;;;5075386;28;20538;-51
2022/08/21 03:13:28;;;;;;;6.27;3.60;;;16.60;99.90;;;;;;5069308;28;20461;-52
2022/08/21 03:15:57;;;;;;;4.73;3.50;;;16.60;99.90;;;;;;5074609;28;20547;-52
2022/08/21 03:18:23;;;;;;;8.90;3.67;;;16.70;99.90;;;;;;5070513;28;20477;-51
2022/08/21 03:20:50;;;;;;;3.73;3.50;;;16.70;99.90;;;;;;5082203;28;20457;-52
2022/08/21 03:23:19;;;;;;;7.57;3.20;;;16.60;99.90;;;;;;5078307;28;20536;-52
2022/08/21 03:25:47;;;;;;;3.40;3.13;;;16.60;99.90;;;;;;5073374;28;20866;-52
2022/08/21 03:28:17;;;;;;;8.73;3.40;;;16.50;99.90;;;;;;5071645;28;20982;-51
2022/08/21 03:30:44;;;;;;;3.90;3.00;;;16.50;99.90;;;;;;5065804;28;20512;-52
2022/08/21 03:33:12;;;;;;;3.67;2.80;;;16.50;99.90;;;;;;5070823;28;20948;-52
2022/08/21 03:35:38;;;;;;;5.63;2.87;;;16.50;99.90;;;;;;5075276;28;20457;-52
2022/08/21 03:38:05;;;;;;;2.90;2.70;;;16.40;20.50;;;;;;5079810;28;20475;-52
2022/08/21 03:40:33;;;;;;;2.90;2.70;;;16.40;22.00;;;;;;5075000;28;20852;-53
2022/08/21 03:42:59;;;;;;;5.03;2.83;;;16.40;28.80;;;;;;5070581;28;20469;-52
2022/08/21 03:45:27;;;;;;;3.97;2.93;;;16.40;25.80;;;;;;5070768;28;20984;-52
2022/08/21 03:47:57;;;;;;;3.10;2.80;;;16.40;24.40;;;;;;5070531;28;20481;-52
2022/08/21 03:50:24;;;;;;;3.97;2.30;;;16.40;30.60;;;;;;5074740;28;20572;-53
2022/08/21 03:52:51;;;;;;;4.57;2.50;;;16.30;32.80;;;;;;5071803;28;20866;-52
2022/08/21 03:55:17;;;;;;;4.07;2.87;;;16.30;37.70;;;;;;5069316;28;20464;-51
2022/08/21 03:57:45;;;;;;;4.20;3.00;;;16.30;36.10;;;;;;5079855;28;20522;-51
2022/08/21 04:00:14;;;;;;;10.80;2.97;;;16.20;41.00;;;;;;5076769;28;21176;-51
2022/08/21 04:02:42;;;;;;;4.00;2.70;;;16.20;44.60;;;;;;5073185;28;20452;-51
2022/08/21 04:05:09;;;;;;;8.30;2.80;;;16.20;45.00;;;;;;5071803;28;20456;-51
2022/08/21 04:07:36;;;;;;;3.10;2.27;;;16.20;47.80;;;;;;5085290;28;20949;-51
2022/08/21 04:10:03;;;;;;;5.53;2.50;;;16.20;42.80;;;;;;5074884;28;20457;-52
2022/08/21 04:12:30;;;;;;;3.80;2.57;;;16.20;42.50;;;;;;5072296;28;20546;-54
2022/08/21 04:14:57;;;;;;;5.80;2.20;;;16.10;45.80;;;;;;5075021;28;20461;-54
2022/08/21 04:17:24;;;;;;;4.83;2.50;;;16.10;49.40;;;;;;5071504;28;20506;-53
2022/08/21 04:19:51;;;;;;;4.77;2.73;;;16.10;47.50;;;;;;5074281;28;20494;-54
2022/08/21 04:22:18;;;;;;;5.53;2.60;;;16.10;54.10;;;;;;5075511;28;20510;-52
2022/08/21 04:24:44;;;;;;;3.43;2.50;;;16.00;55.60;;;;;;5078738;28;20453;-52
2022/08/21 04:27:11;;;;;;;3.33;2.47;;;16.10;47.00;;;;;;5073044;28;20522;-52
2022/08/21 04:29:37;;;;;;;2.47;2.27;;;16.00;46.80;;;;;;5083149;28;20481;-52
2022/08/21 04:32:06;;;;;;;8.23;2.63;;;16.00;44.40;;;;;;5074665;28;20480;-52
2022/08/21 04:34:32;;;;;;;2.70;2.00;;;16.00;46.60;;;;;;5071670;28;20461;-52
2022/08/21 04:36:59;;;;;;;6.23;2.83;;;16.00;52.10;;;;;;5072932;28;20913;-52
2022/08/21 04:39:25;;;;;;;5.97;2.53;;;16.00;54.50;;;;;;5078768;28;20561;-51
2022/08/21 04:41:52;;;;;;;7.20;2.57;;;16.00;49.40;;;;;;5065321;28;20457;-51
2022/08/21 04:44:18;;;;;;;4.27;2.17;;;16.00;53.60;;;;;;5076749;28;20509;-52
2022/08/21 04:46:45;;;;;;;7.43;2.80;;;16.00;57.20;;;;;;5071971;28;20464;-51
2022/08/21 04:49:13;;;;;;;10.07;2.40;;;16.00;56.90;;;;;;5071163;28;20558;-51
2022/08/21 04:51:40;;;;;;;3.70;2.47;;;16.00;61.50;;;;;;5067466;28;20542;-51
2022/08/21 04:54:11;;;;;;;6.33;2.40;;;16.00;66.40;;;;;;5076358;28;20465;-52
2022/08/21 04:56:42;;;;;;;3.60;2.20;;;16.00;71.20;;;;;;5076337;28;20522;-51
2022/08/21 04:59:16;;;;;;;3.93;2.20;;;16.00;77.20;;;;;;5076946;28;20476;-51
2022/08/21 05:01:44;;;;;;;4.17;3.07;;;16.00;77.30;;;;;;5065713;28;20506;-51
2022/08/21 05:04:17;;;;;;;8.70;2.00;;;16.00;74.60;;;;;;5069823;28;20514;-53
2022/08/21 05:06:46;;;;;;;5.13;2.17;;;16.00;75.80;;;;;;5076402;28;20457;-52
2022/08/21 05:09:15;;;;;;;4.73;2.03;;;16.00;78.50;;;;;;5072760;28;20484;-52
2022/08/21 05:11:42;;;;;;;3.07;2.20;;;16.10;78.80;;;;;;5071845;28;20527;-52
2022/08/21 05:14:09;;;;;;;4.67;2.10;;;16.10;79.20;;;;;;5070933;28;20464;-53
2022/08/21 05:16:36;;;;;;;3.20;1.90;;;16.10;81.50;;;;;;5071732;28;20456;-53
2022/08/21 05:19:02;;;;;;;3.03;2.17;;;16.10;78.80;;;;;;5082651;28;20866;-52
2022/08/21 05:21:30;;;;;;;4.43;2.30;;;16.10;77.00;;;;;;5068589;28;20453;-51
2022/08/21 05:23:57;;;;;;;5.83;3.57;;;16.10;85.90;;;;;;5069368;28;20494;-52
2022/08/21 05:26:23;;;;;;;5.30;2.20;;;16.10;88.40;;;;;;5079627;28;20453;-51
2022/08/21 05:28:50;;;;;;;3.33;1.80;;;16.10;99.90;;;;;;5072155;28;20485;-52
2022/08/21 05:31:16;;;;;;;3.03;2.70;;;16.20;98.20;;;;;;5071411;28;20534;-53
2022/08/21 05:33:43;;;;;;;4.70;2.33;;;16.10;99.90;;;;;;5077785;28;20515;-52
2022/08/21 05:36:09;;;;;;;3.40;2.23;;;16.20;99.90;;;;;;5067439;28;20461;-52
2022/08/21 05:38:37;;;;;;;5.53;2.10;;;16.20;99.90;;;;;;5069049;28;20481;-54
2022/08/21 05:41:04;;;;;;;7.13;2.80;;;16.20;99.90;;;;;;5077441;28;20946;-54
2022/08/21 05:43:32;;;;;;;8.37;2.97;;;16.20;99.90;;;;;;5074973;28;20505;-52
2022/08/21 05:45:59;;;;;;;1.80;1.70;;;16.20;99.90;;;;;;5070974;28;21034;-52
2022/08/21 05:48:26;;;;;;;12.57;2.53;;;16.30;99.90;;;;;;5076245;28;20480;-52
2022/08/21 05:50:53;;;;;;;5.07;2.13;;;16.30;99.90;;;;;;5082271;28;20477;-52
2022/08/21 05:53:22;;;;;;;3.63;2.13;;;16.20;99.90;;;;;;5078874;28;20457;-52
2022/08/21 05:55:51;;;;;;;1.93;1.83;;;16.20;99.90;;;;;;5071800;28;20514;-52
2022/08/21 05:58:20;;;;;;;5.20;2.20;;;16.30;99.90;;;;;;5074722;28;20477;-53
2022/08/21 06:00:48;;;;;;;2.33;2.13;;;16.30;99.90;;;;;;5071899;28;20476;-52
2022/08/21 06:03:17;;;;;;;4.43;2.40;;;16.30;99.90;;;;;;5079834;28;20513;-52
2022/08/21 06:05:45;;;;;;;3.83;2.03;;;16.40;99.90;;;;;;5069387;28;20453;-51
2022/08/21 06:08:12;;;;;;;4.00;1.77;;;16.40;99.90;;;;;;5081252;28;21025;-52
2022/08/21 06:10:38;;;;;;;5.30;2.50;;;16.40;99.90;;;;;;5077168;28;20518;-53
2022/08/21 06:13:06;;;;;;;12.13;2.70;;;16.40;99.90;;;;;;5073583;28;20473;-54
2022/08/21 06:15:33;;;;;;;11.33;2.17;;;16.40;99.90;;;;;;5073081;28;20457;-52
2022/08/21 06:17:59;;;;;;;3.43;1.93;;;16.50;99.90;;;;;;5073115;28;20485;-52
2022/08/21 06:20:26;;;;;;;2.87;1.47;;;16.50;99.90;;;;;;5078163;28;20510;-54
2022/08/21 06:22:53;;;;;;;6.57;2.43;;;16.50;99.90;;;;;;5070887;28;20953;-53
2022/08/21 06:25:20;;;;;;;4.03;1.93;;;16.60;1.40;;;;;;5076498;28;20452;-54
2022/08/21 06:27:46;;;;;;;2.70;1.80;;;16.70;99.90;;;;;;5068616;28;20900;-53
2022/08/21 06:30:15;;;;;;;4.97;2.10;;;16.60;99.90;;;;;;5073437;28;21001;-53
2022/08/21 06:32:41;;;;;;;5.13;1.90;;;16.70;99.90;;;;;;5068630;28;20489;-52
2022/08/21 06:35:09;;;;;;;4.13;2.10;;;16.80;99.90;;;;;;5078527;28;20456;-51
2022/08/21 06:37:35;;;;;;;4.07;1.53;;;16.80;99.90;;;;;;5071654;28;20464;-51
2022/08/21 06:40:03;;;;;;;6.93;2.17;;;16.80;99.90;;;;;;5077611;28;20464;-52
2022/08/21 06:42:29;;;;;;;6.07;1.63;;;16.90;99.90;;;;;;5063317;28;20461;-52
2022/08/21 06:44:58;;;;;;;3.00;1.90;;;16.90;99.90;;;;;;5065377;28;20461;-51
2022/08/21 06:47:26;;;;;;;6.70;1.80;;;17.00;99.90;;;;;;5064291;28;20465;-53
2022/08/21 06:49:53;;;;;;;4.10;2.07;;;17.00;99.90;;;;;;5070379;28;21062;-52
2022/08/21 06:52:19;;;;;;;2.93;1.90;;;17.00;99.90;;;;;;5058204;28;20476;-53
2022/08/21 06:54:46;;;;;;;3.17;2.00;;;17.10;99.90;;;;;;5063492;28;20527;-51
2022/08/21 06:57:13;;;;;;;4.83;2.10;;;17.10;99.90;;;;;;5074692;28;20963;-52
2022/08/21 06:59:39;;;;;;;3.60;1.80;;;17.10;99.90;;;;;;5070960;28;20526;-51
2022/08/21 07:02:06;;;;;;;2.60;1.33;;;17.20;99.90;;;;;;5063749;28;20502;-52
2022/08/21 07:04:34;;;;;;;5.50;2.23;;;17.30;99.90;;;;;;5066211;28;20519;-51
2022/08/21 07:07:01;;;;;;;2.67;1.63;;;17.30;99.90;;;;;;5067486;28;20539;-52
2022/08/21 07:09:27;;;;;;;4.67;2.07;;;17.40;99.90;;;;;;5073406;28;21023;-53
2022/08/21 07:11:56;;;;;;;7.07;2.33;;;17.50;99.90;;;;;;5065030;28;20478;-52
2022/08/21 07:14:23;;;;;;;8.13;2.00;;;17.50;99.90;;;;;;5075917;28;20458;-52
2022/08/21 07:16:50;;;;;;;5.60;1.60;;;17.50;99.90;;;;;;5060026;28;20886;-54
2022/08/21 07:22:41;;;;;;;3.53;1.60;;;17.60;99.90;;;;;;5060883;28;20427;-51
2022/08/21 07:25:09;;;;;;;4.77;1.60;;;17.70;73.00;;;;;;5072256;28;20464;-51
2022/08/21 07:27:36;;;;;;;7.80;2.27;;;17.80;41.20;;;;;;5067257;28;20485;-53
2022/08/21 07:30:02;;;;;;;4.30;1.90;;;17.80;50.70;;;;;;5068976;28;20534;-52
2022/08/21 07:32:29;;;;;;;2.43;1.60;;;17.90;56.70;;;;;;5064076;28;20586;-52
2022/08/21 07:34:56;;;;;;;4.40;2.13;;;17.90;67.40;;;;;;5065454;28;20962;-52
2022/08/21 07:37:23;;;;;;;2.20;1.17;;;18.00;75.80;;;;;;5068010;28;20544;-52
2022/08/21 07:39:51;;;;;;;2.90;1.70;;;18.10;95.80;;;;;;5064441;28;20542;-52
2022/08/21 07:42:18;;;;;;;6.57;1.47;;;18.20;90.00;;;;;;5061696;28;20540;-52
2022/08/21 07:44:44;;;;;;;2.90;1.43;;;18.20;92.90;;;;;;5074758;28;20497;-52
2022/08/21 07:47:11;;;;;;;4.63;1.67;;;18.30;99.90;;;;;;5067996;28;20500;-52
2022/08/21 07:49:38;;;;;;;8.00;1.77;;;18.40;99.90;;;;;;5067696;28;20521;-52
2022/08/21 07:52:04;;;;;;;2.30;1.50;;;18.50;99.90;;;;;;5065249;28;20473;-52
2022/08/21 07:54:31;;;;;;;3.43;1.30;;;18.50;99.90;;;;;;5069922;28;20514;-52
2022/08/21 07:56:59;;;;;;;3.13;1.63;;;18.60;99.90;;;;;;5073103;28;20457;-52
2022/08/21 07:59:25;;;;;;;4.93;1.80;;;18.70;99.90;;;;;;5076120;28;20515;-52
2022/08/21 08:01:52;;;;;;;6.33;1.83;;;18.70;99.90;;;;;;5076880;28;20510;-52
2022/08/21 08:04:18;;;;;;;2.73;1.40;;;18.70;99.90;;;;;;5079738;28;20452;-52
2022/08/21 08:06:45;;;;;;;1.80;1.20;;;18.80;99.90;;;;;;5072516;28;20515;-53
2022/08/21 08:09:12;;;;;;;2.90;1.77;;;18.90;99.90;;;;;;5068060;28;20575;-52
2022/08/21 08:11:42;;;;;;;2.27;1.40;;;18.90;99.90;;;;;;5070761;28;20516;-52
2022/08/21 08:14:11;;;;;;;3.43;1.60;;;19.00;99.90;;;;;;5084010;28;20565;-52
2022/08/21 08:16:37;;;;;;;8.27;1.80;;;19.00;99.90;;;;;;5077472;28;20508;-52
2022/08/21 08:19:04;;;;;;;2.07;1.70;;;19.10;99.90;;;;;;5063720;28;20571;-52
2022/08/21 08:21:32;;;;;;;6.03;2.10;;;19.10;99.90;;;;;;5063681;28;20545;-52
2022/08/21 08:23:58;;;;;;;4.13;1.87;;;19.20;99.90;;;;;;5063386;28;20461;-52
2022/08/21 08:26:25;;;;;;;4.37;1.50;;;19.30;99.90;;;;;;5065896;28;20728;-52
2022/08/21 08:28:51;;;;;;;4.43;2.00;;;19.30;99.90;;;;;;5065832;28;20571;-52
2022/08/21 08:31:19;;;;;;;6.07;1.57;;;19.40;99.90;;;;;;5069435;28;20485;-52
2022/08/21 08:33:46;;;;;;;4.50;2.20;;;19.40;99.90;;;;;;5074932;28;20501;-52
2022/08/21 08:36:14;;;;;;;3.80;1.60;;;19.60;99.90;;;;;;5062631;28;20546;-53
2022/08/21 08:38:41;;;;;;;9.63;1.80;;;19.60;90.20;;;;;;5073808;28;20928;-52
2022/08/21 08:41:13;;;;;;;1.50;1.40;;;19.70;33.70;;;;;;5080457;28;20926;-53
2022/08/21 08:43:41;;;;;;;4.57;2.07;;;19.80;48.60;;;;;;5077130;28;20544;-52
2022/08/21 08:46:13;;;;;;;12.10;2.30;;;19.70;51.80;;;;;;5067455;28;20549;-52
2022/08/21 08:48:48;;;;;;;7.10;1.83;;;19.80;49.90;;;;;;5066842;28;20481;-52
2022/08/21 08:51:20;;;;;;;2.10;1.43;;;19.80;51.30;;;;;;5067772;28;20480;-52
2022/08/21 08:53:52;;;;;;;4.37;1.53;;;19.90;40.40;;;;;;5064922;28;20481;-51
2022/08/21 08:56:23;;;;;;;2.87;1.60;;;20.00;43.20;;;;;;5066634;28;20457;-53
2022/08/21 08:58:52;;;;;;;9.00;2.20;;;20.10;40.40;;;;;;5074346;28;20476;-52
2022/08/21 09:01:21;;;;;;;3.73;1.40;;;20.20;57.00;;;;;;5073410;28;20465;-52
2022/08/21 09:03:51;;;;;;;2.87;1.50;;;20.20;60.50;;;;;;5069297;28;20461;-53
2022/08/21 09:06:28;;;;;;;2.40;1.63;;;20.30;65.40;;;;;;5065534;28;20453;-53
2022/08/21 09:09:11;;;;;;;4.57;2.43;;;20.30;67.10;;;;;;5082817;28;20526;-52
2022/08/21 09:11:45;;;;;;;5.23;2.03;;;20.40;66.80;;;;;;5077755;28;20456;-52
2022/08/21 09:14:17;;;;;;;5.33;1.87;;;20.40;75.20;;;;;;5080894;28;20501;-52
2022/08/21 09:16:53;;;;;;;3.93;1.63;;;20.40;88.80;;;;;;5071168;28;20852;-52
2022/08/21 09:19:36;;;;;;;6.33;2.90;;;20.40;84.90;;;;;;5074758;28;20477;-53
2022/08/21 09:22:10;;;;;;;7.17;2.30;;;20.50;88.30;;;;;;5083618;28;20513;-52
2022/08/21 09:24:48;;;;;;;4.60;1.93;;;20.50;94.30;;;;;;5072308;28;21979;-52
2022/08/21 09:27:17;;;;;;;1.93;1.57;;;20.50;82.00;;;;;;5081555;28;20488;-52
2022/08/21 09:29:47;;;;;;;4.40;1.37;;;20.50;95.90;;;;;;5072497;28;20475;-53
2022/08/21 09:32:18;;;;;;;3.07;1.43;;;20.40;87.20;;;;;;5062466;28;20480;-53
2022/08/21 09:34:57;;;;;;;10.57;1.90;;;20.50;99.90;;;;;;5067110;28;20543;-53
2022/08/21 09:37:24;;;;;;;2.87;1.40;;;20.50;99.90;;;;;;5065185;28;20514;-52
2022/08/21 09:39:51;;;;;;;1.67;1.10;;;20.50;94.80;;;;;;5066756;28;20508;-52
2022/08/21 09:42:23;;;;;;;5.60;1.60;;;20.50;96.20;;;;;;5065618;28;20455;-52
2022/08/21 09:45:06;;;;;;;6.53;1.80;;;20.60;99.90;;;;;;5062252;28;20551;-52
2022/08/21 09:47:33;;;;;;;13.10;2.50;;;20.60;99.90;;;;;;5064525;28;20532;-53
2022/08/21 09:50:11;;;;;;;7.43;2.70;;;20.70;99.90;;;;;;5070869;28;20492;-53
2022/08/21 09:52:45;;;;;;;2.63;1.70;;;20.70;99.90;;;;;;5070628;28;20467;-53
2022/08/21 09:57:38;;;;;;;2.17;1.73;;;20.70;99.90;;;;;;5067286;28;20489;-52
2022/08/21 09:58:03;;;;;;;4.10;1.77;;;20.80;99.90;;;;;;5069822;28;20857;-52
2022/08/21 10:00:32;;;;;;;6.53;2.07;;;20.80;99.90;;;;;;5071363;28;20449;-53
2022/08/21 10:03:11;;;;;;;5.20;1.67;;;20.80;99.90;;;;;;5067883;28;20219;-53
2022/08/21 10:05:40;;;;;;;2.77;1.67;;;20.80;99.90;;;;;;5064330;28;20464;-53
2022/08/21 10:08:18;;;;;;;2.00;1.50;;;20.90;99.90;;;;;;5076759;28;20487;-52
2022/08/21 10:10:44;;;;;;;4.33;1.97;;;20.90;99.90;;;;;;5069398;28;20457;-52
2022/08/21 10:13:18;;;;;;;5.07;1.80;;;21.00;99.90;;;;;;5065544;28;20478;-52
2022/08/21 10:15:51;;;;;;;2.13;1.63;;;21.10;99.90;;;;;;5065741;28;20453;-52
2022/08/21 10:18:25;;;;;;;4.73;1.73;;;21.10;99.90;;;;;;5061362;28;20476;-52
2022/08/21 10:21:01;;;;;;;4.53;1.40;;;21.10;99.90;;;;;;5061405;28;21053;-52
2022/08/21 10:23:39;;;;;;;2.37;1.60;;;21.20;99.90;;;;;;5069294;28;20549;-54
2022/08/21 10:26:13;;;;;;;2.80;1.60;;;21.20;99.90;;;;;;5066717;28;21039;-53
2022/08/21 10:28:45;;;;;;;5.53;1.80;;;21.30;99.90;;;;;;5068692;28;20552;-53
2022/08/21 10:31:17;;;;;;;4.43;1.30;;;21.30;99.90;;;;;;5059338;28;20465;-53
2022/08/21 10:33:53;;;;;;;4.57;1.53;;;21.30;99.90;;;;;;5072973;28;21008;-53
2022/08/21 10:36:30;;;;;;;3.50;1.60;;;21.30;99.90;;;;;;5077461;28;20453;-53
2022/08/21 10:39:04;;;;;;;6.53;1.47;;;21.40;99.90;;;;;;5073824;28;20483;-52
2022/08/21 10:41:49;;;;;;;1.37;1.27;;;21.40;99.90;;;;;;5079184;28;20554;-53
2022/08/21 10:44:28;;;;;;;7.17;1.30;;;21.50;99.90;;;;;;5085174;28;20524;-52
2022/08/21 10:47:02;;;;;;;1.70;1.40;;;21.50;99.90;;;;;;5069924;28;20461;-52
2022/08/21 10:49:39;;;;;;;3.90;1.40;;;21.60;99.90;;;;;;5074597;28;20526;-52
2022/08/21 10:52:31;;;;;;;3.37;1.17;;;21.80;99.90;;;;;;5061749;28;21009;-52
2022/08/21 10:55:03;;;;;;;1.83;0.93;;;22.10;99.90;;;;;;5074003;28;20829;-52
2022/08/21 10:57:41;;;;;;;1.60;1.30;;;22.40;99.90;;;;;;5066244;28;20938;-52
2022/08/21 11:00:11;;;;;;;2.17;1.20;;;22.50;99.90;;;;;;5069275;28;20448;-52
2022/08/21 11:02:43;;;;;;;5.17;1.00;;;22.60;99.90;;;;;;5083821;28;20459;-52
2022/08/21 11:05:14;;;;;;;1.40;1.30;;;22.50;99.90;;;;;;5069002;28;20457;-52
2022/08/21 11:07:47;;;;;;;1.70;1.47;;;22.50;99.90;;;;;;5067640;28;20453;-52
2022/08/21 11:10:21;;;;;;;3.03;1.00;;;22.50;99.90;;;;;;5068158;28;20461;-52
2022/08/21 11:12:52;;;;;;;1.20;1.10;;;22.40;99.90;;;;;;5069788;28;20472;-53
2022/08/21 11:15:29;;;;;;;3.60;1.40;;;22.40;99.90;;;;;;5070136;28;22801;-52
2022/08/21 11:18:04;;;;;;;3.17;1.20;;;22.50;99.90;;;;;;5068214;28;20480;-52
2022/08/21 11:20:37;;;;;;;1.00;0.90;;;22.50;99.90;;;;;;5076240;28;20455;-52
2022/08/21 11:23:12;;;;;;;1.57;0.97;;;22.50;99.90;;;;;;5072868;28;20453;-52
2022/08/21 11:25:44;;;;;;;1.30;1.10;;;22.60;99.90;;;;;;5054968;28;20456;-51
2022/08/21 11:28:17;;;;;;;1.77;0.90;;;22.80;99.90;;;;;;5063966;28;21001;-52
2022/08/21 11:30:57;;;;;;;5.87;1.17;;;22.90;99.90;;;;;;5075438;28;20524;-53
2022/08/21 11:33:35;;;;;;;1.13;1.00;;;23.00;99.90;;;;;;5083064;28;21053;-53
2022/08/21 11:36:13;;;;;;;2.50;0.93;;;23.00;99.90;;;;;;5065108;28;20449;-51
2022/08/21 11:38:43;;;;;;;1.40;1.00;;;23.20;99.90;;;;;;5072549;28;20476;-53
2022/08/21 11:41:21;;;;;;;2.80;1.23;;;23.20;99.90;;;;;;5064028;28;20507;-51
2022/08/21 11:43:52;;;;;;;3.60;0.87;;;23.20;99.90;;;;;;5061955;28;20457;-52
2022/08/21 11:46:29;;;;;;;1.40;0.90;;;23.20;99.90;;;;;;5077327;28;20518;-52
2022/08/21 11:49:26;;;;;;;2.20;1.00;;;23.40;99.90;;;;;;5069925;28;20484;-52
2022/08/21 11:51:59;;;;;;;5.43;1.20;;;23.40;99.90;;;;;;5048836;28;20469;-52
2022/08/21 11:54:33;;;;;;;2.57;1.23;;;23.50;99.90;;;;;;5066357;28;20530;-52
2022/08/21 11:57:04;;;;;;;1.37;0.80;;;23.50;99.90;;;;;;5064110;28;20448;-52
2022/08/21 11:59:38;;;;;;;1.50;0.80;;;23.30;99.90;;;;;;5074392;28;20480;-51
2022/08/21 12:02:13;;;;;;;3.00;1.30;;;23.40;99.90;;;;;;5064626;28;20483;-51
2022/08/21 12:04:46;;;;;;;1.20;1.00;;;23.50;99.90;;;;;;5068372;28;20926;-51
2022/08/21 12:07:17;;;;;;;2.83;1.43;;;23.50;99.90;;;;;;5071123;28;21073;-51
2022/08/21 12:09:56;;;;;;;1.33;0.93;;;23.50;99.90;;;;;;5072712;28;20541;-52
2022/08/21 12:12:26;;;;;;;1.73;1.60;;;23.50;99.90;;;;;;5071607;28;20537;-52
2022/08/21 12:15:15;;;;;;;2.30;1.20;;;23.40;99.90;;;;;;5078056;28;20541;-53
2022/08/21 12:17:54;;;;;;;3.33;1.43;;;23.50;99.90;;;;;;5076311;28;20505;-52
2022/08/21 12:20:33;;;;;;;7.73;1.53;;;23.60;99.90;;;;;;5073045;28;20461;-52
2022/08/21 12:23:06;;;;;;;2.77;1.30;;;23.60;99.90;;;;;;5068677;28;20483;-52
2022/08/21 12:25:40;;;;;;;3.13;1.17;;;23.50;99.90;;;;;;5068600;28;20456;-52
2022/08/21 12:28:10;;;;;;;6.17;1.07;;;23.60;99.90;;;;;;5076165;28;20534;-52
2022/08/21 12:30:42;;;;;;;1.17;0.70;;;23.70;99.90;;;;;;5076060;28;20573;-52
2022/08/21 12:33:22;;;;;;;2.10;1.30;;;23.80;99.90;;;;;;5074256;28;20472;-52
2022/08/21 12:35:50;;;;;;;1.43;1.30;;;23.90;99.90;;;;;;5078539;28;20460;-51
2022/08/21 12:38:22;;;;;;;2.50;1.20;;;24.00;99.90;;;;;;5068212;28;20480;-50
2022/08/21 12:40:54;;;;;;;2.70;0.90;;;23.90;99.90;;;;;;5073203;28;20492;-52
2022/08/21 12:43:26;;;;;;;3.47;1.27;;;24.00;99.90;;;;;;5075972;28;20464;-52
2022/08/21 12:45:52;;;;;;;2.30;1.70;;;24.10;99.90;;;;;;5086717;28;20463;-52
2022/08/21 12:48:23;;;;;;;2.90;1.60;;;24.20;99.90;;;;;;5070407;28;20538;-51
2022/08/21 12:50:53;;;;;;;4.93;1.03;;;24.40;99.90;;;;;;5069313;28;20934;-51
2022/08/21 12:53:28;;;;;;;4.60;1.37;;;24.30;99.90;;;;;;5068673;28;20524;-51
2022/08/21 12:56:01;;;;;;;3.73;1.20;;;24.30;99.90;;;;;;5071157;28;20533;-51
2022/08/21 12:58:28;;;;;;;1.20;1.00;;;24.50;99.90;;;;;;5063474;28;20481;-51
2022/08/21 13:01:04;;;;;;;5.23;1.30;;;24.40;99.90;;;;;;5072365;28;20469;-51